Time;durP1;ratioP1;P1;durP2;ratioP2;P2;SDS_P1;SDS_P2;PMS_P1;PMS_P2;Temp;Humidity;BMP_temperature;BMP_pressure;BME280_temperature;BME280_humidity;BME280_pressure;Samples;Min_cycle;Max_cycle;Signal;HPM_P1;HPM_P2
2023/10/25 00:00:08;;;;;;;4.63;1.90;;;9.70;99.90;;;;;;5036325;28;20557;-55
2023/10/25 00:02:35;;;;;;;5.70;2.20;;;9.70;99.90;;;;;;5036648;28;20037;-51
2023/10/25 00:05:00;;;;;;;4.00;1.90;;;9.60;99.90;;;;;;5036201;28;20087;-52
2023/10/25 00:07:26;;;;;;;5.87;1.80;;;9.70;99.90;;;;;;5036373;28;20033;-51
2023/10/25 00:09:51;;;;;;;5.07;2.00;;;9.60;99.90;;;;;;5036123;28;20092;-54
2023/10/25 00:12:17;;;;;;;4.00;2.20;;;9.60;99.90;;;;;;5035974;28;20029;-54
2023/10/25 00:14:43;;;;;;;4.07;2.00;;;9.60;99.90;;;;;;5036068;28;20036;-54
2023/10/25 00:17:08;;;;;;;7.00;2.27;;;9.60;99.90;;;;;;5036062;28;20093;-53
2023/10/25 00:19:34;;;;;;;8.23;2.20;;;9.60;99.90;;;;;;5018059;28;20172;-52
2023/10/25 00:21:59;;;;;;;4.57;2.00;;;9.60;99.90;;;;;;5018106;28;20445;-51
2023/10/25 00:24:25;;;;;;;6.63;1.80;;;9.60;99.90;;;;;;5035870;28;20034;-50
2023/10/25 00:26:51;;;;;;;4.83;2.10;;;9.60;99.90;;;;;;5036403;28;20025;-51
2023/10/25 00:29:16;;;;;;;5.03;2.20;;;9.60;99.90;;;;;;5035801;28;20041;-54
2023/10/25 00:31:43;;;;;;;3.90;1.90;;;9.50;99.90;;;;;;5018127;28;20029;-54
2023/10/25 00:34:09;;;;;;;4.97;2.20;;;9.40;99.90;;;;;;5017684;28;20086;-52
2023/10/25 00:36:35;;;;;;;5.00;2.13;;;9.40;99.90;;;;;;5018211;28;20053;-55
2023/10/25 00:39:01;;;;;;;4.67;2.10;;;9.30;99.90;;;;;;5034634;28;20033;-55
2023/10/25 00:41:27;;;;;;;4.70;2.37;;;9.30;99.90;;;;;;5017501;28;20026;-52
2023/10/25 00:43:54;;;;;;;6.87;2.40;;;9.20;99.90;;;;;;5036009;28;20025;-50
2023/10/25 00:46:25;;;;;;;6.07;2.37;;;9.20;99.90;;;;;;5035336;28;20537;-54
2023/10/25 00:48:53;;;;;;;4.77;2.03;;;9.20;99.90;;;;;;5017775;28;20037;-53
2023/10/25 00:51:22;;;;;;;4.30;2.10;;;9.30;99.90;;;;;;5017552;28;20039;-52
2023/10/25 00:53:52;;;;;;;5.03;2.25;;;9.20;99.90;;;;;;5035365;28;20398;-51
2023/10/25 00:56:20;;;;;;;5.73;2.50;;;9.20;99.90;;;;;;5017547;28;20497;-52
2023/10/25 00:58:51;;;;;;;4.25;2.13;;;9.20;99.90;;;;;;5017376;28;20041;-55
2023/10/25 01:01:19;;;;;;;5.27;2.27;;;9.20;99.90;;;;;;5017760;28;20482;-50
2023/10/25 01:03:46;;;;;;;6.13;2.40;;;9.20;99.90;;;;;;5001448;28;20523;-53
2023/10/25 01:06:12;;;;;;;6.50;2.20;;;9.10;99.90;;;;;;5017276;28;20042;-55
2023/10/25 01:08:38;;;;;;;6.03;2.67;;;9.10;99.90;;;;;;5035249;28;20090;-54
2023/10/25 01:11:04;;;;;;;6.27;2.57;;;9.10;99.90;;;;;;5001553;28;20037;-55
2023/10/25 01:13:31;;;;;;;7.73;2.33;;;9.10;99.90;;;;;;5017150;28;20029;-53
2023/10/25 01:15:56;;;;;;;4.63;2.70;;;9.10;99.90;;;;;;5034732;28;20029;-50
2023/10/25 01:18:22;;;;;;;6.37;2.13;;;9.00;99.90;;;;;;5017234;28;20437;-52
2023/10/25 01:20:48;;;;;;;6.70;2.90;;;9.00;99.90;;;;;;5017392;28;20497;-53
2023/10/25 01:23:14;;;;;;;3.77;2.33;;;9.00;99.90;;;;;;5035574;28;20029;-55
2023/10/25 01:25:44;;;;;;;4.60;2.50;;;9.00;99.90;;;;;;5016125;28;20099;-55
2023/10/25 01:28:10;;;;;;;4.90;2.60;;;9.00;99.90;;;;;;5015659;28;20371;-54
2023/10/25 01:30:36;;;;;;;4.60;2.30;;;8.90;99.90;;;;;;5015903;28;20037;-53
2023/10/25 01:33:02;;;;;;;7.07;2.50;;;8.90;99.90;;;;;;5034439;28;20040;-52
2023/10/25 01:35:28;;;;;;;7.67;2.80;;;8.90;99.90;;;;;;5033881;28;20542;-54
2023/10/25 01:37:54;;;;;;;4.40;2.10;;;8.90;99.90;;;;;;5015719;28;20040;-52
2023/10/25 01:40:20;;;;;;;5.17;2.23;;;9.00;99.90;;;;;;5034027;28;20052;-54
2023/10/25 01:42:46;;;;;;;6.17;2.60;;;9.00;99.90;;;;;;5015871;28;20025;-54
2023/10/25 01:45:12;;;;;;;4.87;2.20;;;8.90;99.90;;;;;;5016614;28;20044;-53
2023/10/25 01:47:39;;;;;;;7.60;2.73;;;9.00;99.90;;;;;;5016827;28;20044;-52
2023/10/25 01:50:06;;;;;;;4.17;2.60;;;8.90;99.90;;;;;;5016585;28;20025;-53
2023/10/25 01:52:32;;;;;;;4.87;2.30;;;8.90;99.90;;;;;;5020575;28;20083;-52
2023/10/25 01:54:57;;;;;;;4.97;2.60;;;8.90;99.90;;;;;;5020075;28;20104;-52
2023/10/25 01:57:23;;;;;;;4.57;2.33;;;8.90;99.90;;;;;;5038099;28;20045;-55
2023/10/25 01:59:49;;;;;;;6.27;2.40;;;8.90;99.90;;;;;;5020270;28;20379;-55
2023/10/25 02:02:15;;;;;;;5.50;2.20;;;8.90;99.90;;;;;;5003797;28;20093;-54
2023/10/25 02:04:41;;;;;;;5.23;2.10;;;8.90;99.90;;;;;;5019742;28;20041;-54
2023/10/25 02:07:07;;;;;;;5.03;2.43;;;8.90;99.90;;;;;;5037674;28;20033;-54
2023/10/25 02:09:32;;;;;;;5.90;2.20;;;8.90;99.90;;;;;;5019221;28;20041;-54
2023/10/25 02:11:58;;;;;;;5.10;2.20;;;9.00;99.90;;;;;;5003506;28;20116;-55
2023/10/25 02:14:24;;;;;;;4.93;2.27;;;9.00;99.90;;;;;;5037039;28;20052;-53
2023/10/25 02:16:50;;;;;;;4.60;2.20;;;9.00;99.90;;;;;;5003013;28;20037;-54
2023/10/25 02:19:16;;;;;;;5.83;2.37;;;9.00;99.90;;;;;;5003040;28;20022;-54
2023/10/25 02:21:42;;;;;;;6.97;2.20;;;9.00;99.90;;;;;;5019599;28;20382;-53
2023/10/25 02:24:11;;;;;;;7.43;2.33;;;9.00;99.90;;;;;;5037322;28;20036;-51
2023/10/25 02:26:37;;;;;;;5.10;2.38;;;8.90;99.90;;;;;;5019616;28;20033;-53
2023/10/25 02:29:02;;;;;;;5.57;2.60;;;9.00;99.90;;;;;;5018810;28;20120;-49
2023/10/25 02:31:28;;;;;;;4.13;2.27;;;9.00;99.90;;;;;;5018574;28;20033;-54
2023/10/25 02:33:56;;;;;;;4.23;2.47;;;8.90;99.90;;;;;;5036650;28;20625;-53
2023/10/25 02:36:22;;;;;;;4.27;2.30;;;8.90;99.90;;;;;;5037437;28;20036;-50
2023/10/25 02:38:50;;;;;;;5.70;2.27;;;8.90;99.90;;;;;;5037015;28;20053;-52
2023/10/25 02:41:16;;;;;;;5.07;2.00;;;8.90;99.90;;;;;;5019171;28;20034;-52
2023/10/25 02:43:42;;;;;;;3.60;2.17;;;8.90;99.90;;;;;;5019583;28;20456;-53
2023/10/25 02:46:09;;;;;;;5.50;2.33;;;8.90;99.90;;;;;;5036814;28;20107;-54
2023/10/25 02:48:36;;;;;;;3.90;2.17;;;8.90;99.90;;;;;;5018765;28;20512;-55
2023/10/25 02:51:03;;;;;;;3.87;2.40;;;8.80;99.90;;;;;;5003510;28;20040;-53
2023/10/25 02:53:28;;;;;;;6.83;2.20;;;8.80;99.90;;;;;;5019543;28;20021;-53
2023/10/25 02:56:05;;;;;;;4.67;2.37;;;8.90;99.90;;;;;;5018985;28;20492;-51
2023/10/25 02:58:31;;;;;;;9.30;2.10;;;8.90;99.90;;;;;;5019389;28;20382;-53
2023/10/25 03:00:58;;;;;;;7.37;2.50;;;8.90;99.90;;;;;;5019686;28;20466;-51
2023/10/25 03:03:28;;;;;;;6.00;3.00;;;8.90;99.90;;;;;;5018380;28;20065;-53
2023/10/25 03:05:54;;;;;;;3.57;1.97;;;8.90;99.90;;;;;;5036716;28;20037;-50
2023/10/25 03:08:21;;;;;;;5.30;2.20;;;8.90;99.90;;;;;;5019260;28;20041;-55
2023/10/25 03:10:46;;;;;;;5.40;2.20;;;8.90;99.90;;;;;;5019141;28;20449;-54
2023/10/25 03:13:12;;;;;;;4.10;2.13;;;8.90;99.90;;;;;;5002931;28;20040;-54
2023/10/25 03:15:38;;;;;;;6.07;2.17;;;8.90;99.90;;;;;;5019000;28;20053;-54
2023/10/25 03:18:03;;;;;;;7.80;2.00;;;8.90;99.90;;;;;;5018606;28;20034;-54
2023/10/25 03:20:29;;;;;;;7.70;2.40;;;8.90;99.90;;;;;;5018836;28;20080;-55
2023/10/25 03:22:56;;;;;;;4.23;2.13;;;8.90;99.90;;;;;;5018546;28;20072;-55
2023/10/25 03:25:22;;;;;;;5.13;2.17;;;8.90;99.90;;;;;;5015070;28;20067;-54
2023/10/25 03:27:47;;;;;;;5.83;2.13;;;8.90;99.90;;;;;;5040092;28;20025;-56
2023/10/25 03:30:13;;;;;;;4.40;2.10;;;8.90;99.90;;;;;;5034543;28;20029;-51
2023/10/25 03:32:38;;;;;;;7.17;2.00;;;8.90;99.90;;;;;;5030931;28;20033;-50
2023/10/25 03:35:06;;;;;;;5.73;2.00;;;9.00;99.90;;;;;;5035812;28;20427;-55
2023/10/25 03:37:32;;;;;;;3.97;2.23;;;9.00;99.90;;;;;;5047740;28;20024;-51
2023/10/25 03:39:57;;;;;;;8.63;2.20;;;9.00;99.90;;;;;;5028572;28;20182;-54
2023/10/25 03:42:23;;;;;;;3.60;1.60;;;9.10;99.90;;;;;;5035228;28;20524;-53
2023/10/25 03:44:49;;;;;;;5.07;1.50;;;9.10;99.90;;;;;;5029627;28;20022;-55
2023/10/25 03:47:14;;;;;;;5.20;1.73;;;9.10;99.90;;;;;;5024466;28;20132;-55
2023/10/25 03:49:40;;;;;;;3.10;1.73;;;9.20;99.90;;;;;;5048145;28;20060;-53
2023/10/25 03:52:06;;;;;;;4.03;1.90;;;9.10;99.90;;;;;;5017552;28;20208;-55
2023/10/25 03:54:31;;;;;;;6.30;1.63;;;9.20;99.90;;;;;;5039601;28;20461;-55
2023/10/25 03:56:57;;;;;;;4.03;1.47;;;9.20;99.90;;;;;;5054733;28;20445;-55
2023/10/25 03:59:23;;;;;;;4.67;1.50;;;9.20;99.90;;;;;;5024711;28;20031;-54
2023/10/25 04:01:49;;;;;;;6.77;1.40;;;9.10;99.90;;;;;;5042108;28;20033;-55
2023/10/25 04:04:14;;;;;;;5.57;1.40;;;9.20;99.90;;;;;;5045075;28;20048;-52
2023/10/25 04:06:40;;;;;;;2.90;1.27;;;9.20;99.90;;;;;;5051414;28;20021;-54
2023/10/25 04:09:08;;;;;;;3.10;1.27;;;9.20;99.90;;;;;;5038061;28;20041;-53
2023/10/25 04:11:33;;;;;;;1.63;1.20;;;9.20;99.90;;;;;;5046390;28;20040;-54
2023/10/25 04:13:59;;;;;;;7.60;1.40;;;9.20;99.90;;;;;;5019772;28;20033;-50
2023/10/25 04:16:24;;;;;;;3.17;1.50;;;9.30;99.90;;;;;;5042788;28;20084;-51
2023/10/25 04:18:51;;;;;;;2.70;1.40;;;9.30;99.90;;;;;;5041327;28;20132;-53
2023/10/25 04:21:17;;;;;;;2.00;1.13;;;9.30;99.90;;;;;;5043323;28;20173;-54
2023/10/25 04:23:42;;;;;;;3.67;1.30;;;9.40;99.90;;;;;;5035122;28;20035;-54
2023/10/25 04:26:10;;;;;;;2.07;1.00;;;9.30;99.90;;;;;;5042928;28;20107;-54
2023/10/25 04:28:42;;;;;;;2.43;1.20;;;9.30;99.90;;;;;;5045276;28;20029;-54
2023/10/25 04:31:08;;;;;;;2.93;1.03;;;9.30;99.90;;;;;;5045238;28;20064;-50
2023/10/25 04:33:35;;;;;;;2.17;0.90;;;9.30;99.90;;;;;;5027740;28;20031;-52
2023/10/25 04:36:00;;;;;;;2.60;1.10;;;9.40;99.90;;;;;;5044367;28;20029;-53
2023/10/25 04:38:26;;;;;;;5.03;1.10;;;9.40;99.90;;;;;;5039774;28;20471;-54
2023/10/25 04:40:52;;;;;;;3.03;0.90;;;9.40;99.90;;;;;;5046505;28;20024;-53
2023/10/25 04:43:18;;;;;;;1.70;0.90;;;9.50;99.90;;;;;;5050814;28;20032;-54
2023/10/25 04:45:44;;;;;;;2.10;0.90;;;9.50;99.90;;;;;;5039558;28;20397;-50
2023/10/25 04:48:10;;;;;;;2.00;0.93;;;9.50;99.90;;;;;;5043191;28;20378;-51
2023/10/25 04:50:37;;;;;;;2.70;1.20;;;9.60;99.90;;;;;;5047941;28;20041;-52
2023/10/25 04:53:03;;;;;;;2.70;0.90;;;9.60;99.90;;;;;;5036981;28;20113;-54
2023/10/25 04:55:36;;;;;;;2.23;1.27;;;9.60;99.90;;;;;;5043563;28;20390;-54
2023/10/25 04:58:02;;;;;;;2.77;1.00;;;9.60;99.90;;;;;;5043494;28;20477;-53
2023/10/25 05:00:28;;;;;;;3.17;1.03;;;9.60;99.90;;;;;;5025637;28;20037;-52
2023/10/25 05:02:55;;;;;;;3.03;1.33;;;9.60;99.90;;;;;;5044946;28;20033;-54
2023/10/25 05:05:21;;;;;;;6.87;2.57;;;9.60;99.90;;;;;;5024782;28;20033;-53
2023/10/25 05:07:47;;;;;;;2.80;1.13;;;9.60;99.90;;;;;;5044737;28;20040;-55
2023/10/25 05:10:13;;;;;;;3.17;1.30;;;9.60;99.90;;;;;;5046900;28;20028;-55
2023/10/25 05:12:47;;;;;;;2.93;1.20;;;9.60;99.90;;;;;;5051282;28;20121;-53
2023/10/25 05:15:15;;;;;;;3.80;1.70;;;9.60;99.90;;;;;;5039272;28;20044;-53
2023/10/25 05:17:42;;;;;;;6.80;1.40;;;9.60;99.90;;;;;;5047849;28;20104;-54
2023/10/25 05:20:08;;;;;;;5.93;1.53;;;9.60;99.90;;;;;;5028153;28;20029;-52
2023/10/25 05:22:36;;;;;;;8.53;1.80;;;9.70;99.90;;;;;;5047062;28;20021;-52
2023/10/25 05:25:03;;;;;;;7.10;1.60;;;9.70;99.90;;;;;;5047938;28;20025;-54
2023/10/25 05:27:29;;;;;;;2.97;1.30;;;9.70;99.90;;;;;;5045441;28;20033;-55
2023/10/25 05:29:59;;;;;;;4.37;1.73;;;9.70;99.90;;;;;;5040879;28;20056;-55
2023/10/25 05:32:28;;;;;;;5.37;1.83;;;9.70;99.90;;;;;;5037438;28;20454;-54
2023/10/25 05:34:55;;;;;;;4.50;1.30;;;9.70;99.90;;;;;;5041136;28;20037;-53
2023/10/25 05:37:21;;;;;;;3.47;1.50;;;9.70;99.90;;;;;;5037802;28;20044;-54
2023/10/25 05:39:47;;;;;;;6.87;1.53;;;9.70;99.90;;;;;;5045778;28;20057;-55
2023/10/25 05:42:19;;;;;;;3.17;1.60;;;9.70;99.90;;;;;;5037995;28;20502;-54
2023/10/25 05:44:46;;;;;;;3.13;1.63;;;9.70;99.90;;;;;;5052169;28;20039;-55
2023/10/25 05:47:11;;;;;;;3.03;1.40;;;9.80;99.90;;;;;;5049953;28;20108;-56
2023/10/25 05:49:37;;;;;;;3.00;1.20;;;9.80;99.90;;;;;;5043235;28;20101;-54
2023/10/25 05:52:05;;;;;;;2.53;1.13;;;9.80;99.90;;;;;;5021819;28;20452;-55
2023/10/25 05:54:31;;;;;;;4.17;1.67;;;9.80;99.90;;;;;;5025601;28;20034;-56
2023/10/25 05:56:57;;;;;;;5.63;1.47;;;9.80;99.90;;;;;;5050473;28;20048;-56
2023/10/25 05:59:23;;;;;;;4.60;2.10;;;9.80;99.90;;;;;;5030108;28;20025;-56
2023/10/25 06:01:50;;;;;;;4.43;1.57;;;9.80;99.90;;;;;;5041555;28;20083;-54
2023/10/25 06:04:19;;;;;;;3.67;1.50;;;9.80;99.90;;;;;;5045626;28;20101;-53
2023/10/25 06:06:45;;;;;;;4.17;1.90;;;9.80;99.90;;;;;;5040055;28;20561;-55
2023/10/25 06:09:12;;;;;;;7.53;1.63;;;9.80;99.90;;;;;;5044780;28;20030;-56
2023/10/25 06:11:39;;;;;;;12.30;3.20;;;9.70;99.90;;;;;;5044963;28;20091;-56
2023/10/25 06:14:06;;;;;;;5.07;2.40;;;9.80;99.90;;;;;;5045457;28;20493;-55
2023/10/25 06:16:32;;;;;;;3.77;1.80;;;9.80;99.90;;;;;;5039157;28;20036;-55
2023/10/25 06:18:57;;;;;;;2.70;1.40;;;9.70;99.90;;;;;;5040254;28;20032;-52
2023/10/25 06:21:23;;;;;;;6.57;1.80;;;9.70;99.90;;;;;;5045334;28;20105;-52
2023/10/25 06:23:51;;;;;;;7.00;2.07;;;9.70;99.90;;;;;;5022695;28;20029;-56
2023/10/25 06:26:17;;;;;;;3.77;1.33;;;9.70;99.90;;;;;;5050661;28;20032;-52
2023/10/25 06:28:43;;;;;;;10.67;2.13;;;9.70;99.90;;;;;;5048950;28;20132;-55
2023/10/25 06:31:14;;;;;;;4.33;1.90;;;9.70;99.90;;;;;;5048681;28;20079;-55
2023/10/25 06:33:41;;;;;;;3.37;1.53;;;9.70;99.90;;;;;;5025602;28;20097;-55
2023/10/25 06:36:08;;;;;;;2.80;1.40;;;9.70;99.90;;;;;;5046480;28;20037;-53
2023/10/25 06:38:34;;;;;;;7.93;2.20;;;9.80;99.90;;;;;;5055681;28;20167;-55
2023/10/25 06:41:00;;;;;;;4.80;1.83;;;9.80;99.90;;;;;;5054106;28;20135;-52
2023/10/25 06:43:30;;;;;;;2.20;1.30;;;9.90;99.90;;;;;;5044312;28;20511;-50
2023/10/25 06:45:57;;;;;;;4.83;1.70;;;10.00;99.90;;;;;;5059381;28;20032;-48
2023/10/25 06:48:23;;;;;;;3.07;1.50;;;10.00;99.90;;;;;;5043011;28;20024;-47
2023/10/25 06:50:50;;;;;;;4.30;1.90;;;10.00;99.90;;;;;;5044905;28;20346;-54
2023/10/25 06:53:17;;;;;;;5.40;2.07;;;10.00;99.90;;;;;;5049365;28;20164;-49
2023/10/25 06:55:42;;;;;;;3.50;1.23;;;10.00;99.90;;;;;;5043762;28;20405;-53
2023/10/25 06:58:10;;;;;;;3.50;1.20;;;10.10;99.90;;;;;;5059476;28;20025;-52
2023/10/25 07:00:37;;;;;;;5.43;1.60;;;10.10;99.90;;;;;;5052907;28;20024;-51
2023/10/25 07:03:03;;;;;;;7.27;1.57;;;10.20;99.90;;;;;;5044894;28;20036;-50
2023/10/25 07:05:30;;;;;;;3.70;1.10;;;10.20;99.90;;;;;;5046306;28;20026;-52
2023/10/25 07:07:56;;;;;;;3.07;1.20;;;10.20;99.90;;;;;;5055030;28;20450;-52
2023/10/25 07:10:23;;;;;;;3.27;1.20;;;10.20;99.90;;;;;;5047797;28;20041;-51
2023/10/25 07:12:49;;;;;;;3.17;1.20;;;10.30;99.90;;;;;;5034856;28;20030;-53
2023/10/25 07:15:17;;;;;;;3.03;1.37;;;10.30;99.90;;;;;;5027883;28;20201;-51
2023/10/25 07:17:44;;;;;;;10.23;1.60;;;10.30;99.90;;;;;;5052120;28;20033;-51
2023/10/25 07:20:11;;;;;;;2.43;1.33;;;10.20;99.90;;;;;;5046837;28;20109;-54
2023/10/25 07:22:38;;;;;;;3.03;0.97;;;10.30;99.90;;;;;;5047498;28;20029;-51
2023/10/25 07:25:05;;;;;;;2.20;0.93;;;10.30;99.90;;;;;;5044799;28;20123;-50
2023/10/25 07:27:30;;;;;;;5.30;0.93;;;10.30;99.90;;;;;;5037389;28;20123;-51
2023/10/25 07:29:56;;;;;;;2.90;1.10;;;10.20;99.90;;;;;;5046567;28;20461;-51
2023/10/25 07:32:21;;;;;;;4.70;1.17;;;10.30;99.90;;;;;;5033371;28;20132;-51
2023/10/25 07:34:47;;;;;;;3.97;1.30;;;10.30;99.90;;;;;;5021313;28;20044;-55
2023/10/25 07:37:13;;;;;;;3.27;1.10;;;10.40;99.90;;;;;;5042933;28;20048;-49
2023/10/25 07:39:40;;;;;;;3.47;1.13;;;10.40;99.90;;;;;;5028812;28;20123;-51
2023/10/25 07:42:07;;;;;;;2.37;1.03;;;10.50;99.90;;;;;;5049572;28;20086;-51
2023/10/25 07:44:32;;;;;;;7.03;1.23;;;10.40;99.90;;;;;;5035562;28;20017;-53
2023/10/25 07:46:58;;;;;;;3.30;1.23;;;10.40;99.90;;;;;;5038691;28;20063;-51
2023/10/25 07:49:24;;;;;;;5.67;1.47;;;10.40;99.90;;;;;;5041937;28;20113;-53
2023/10/25 07:51:49;;;;;;;5.57;1.77;;;10.50;99.90;;;;;;5043994;28;20033;-52
2023/10/25 07:54:15;;;;;;;6.30;1.50;;;10.50;99.90;;;;;;5048349;28;20402;-50
2023/10/25 07:56:41;;;;;;;5.90;1.40;;;10.50;99.90;;;;;;5043728;28;20110;-51
2023/10/25 07:59:06;;;;;;;2.83;0.90;;;10.70;99.90;;;;;;5046942;28;20025;-53
2023/10/25 08:01:32;;;;;;;3.77;1.30;;;10.70;99.90;;;;;;5039782;28;20465;-49
2023/10/25 08:03:57;;;;;;;2.97;1.50;;;10.70;99.90;;;;;;5050482;28;20488;-50
2023/10/25 08:06:23;;;;;;;3.40;1.20;;;10.70;99.90;;;;;;5038940;28;20127;-52
2023/10/25 08:08:49;;;;;;;2.03;0.97;;;10.70;99.90;;;;;;5038118;28;20040;-51
2023/10/25 08:11:15;;;;;;;7.50;1.37;;;10.80;99.90;;;;;;5046839;28;20116;-54
2023/10/25 08:13:42;;;;;;;5.63;1.70;;;10.80;99.90;;;;;;5042297;28;20025;-51
2023/10/25 08:16:08;;;;;;;6.40;1.37;;;10.90;99.90;;;;;;5048390;28;20024;-50
2023/10/25 08:18:34;;;;;;;2.23;0.90;;;11.00;99.90;;;;;;5026367;28;20078;-55
2023/10/25 08:21:01;;;;;;;4.17;1.23;;;11.10;99.90;;;;;;5045239;28;20081;-58
2023/10/25 08:23:27;;;;;;;4.90;1.35;;;11.10;99.90;;;;;;5038013;28;20397;-50
2023/10/25 08:25:53;;;;;;;12.18;1.83;;;11.20;99.90;;;;;;5035587;28;20045;-53
2023/10/25 08:28:19;;;;;;;3.00;1.03;;;11.20;99.90;;;;;;5035273;28;20033;-54
2023/10/25 08:30:45;;;;;;;1.87;1.07;;;11.10;99.90;;;;;;5036549;28;20039;-51
2023/10/25 08:33:10;;;;;;;4.35;1.05;;;11.20;99.90;;;;;;5021142;28;20413;-54
2023/10/25 08:35:37;;;;;;;3.45;0.85;;;11.30;99.90;;;;;;5036871;28;20037;-50
2023/10/25 08:38:04;;;;;;;3.60;1.00;;;11.30;99.90;;;;;;5036344;28;20052;-54
2023/10/25 08:40:31;;;;;;;2.50;1.13;;;11.30;99.90;;;;;;5037059;28;20037;-51
2023/10/25 08:43:01;;;;;;;3.25;0.77;;;11.40;99.90;;;;;;5037321;28;20112;-53
2023/10/25 08:45:28;;;;;;;3.95;1.08;;;11.50;99.90;;;;;;5036448;28;20555;-53
2023/10/25 08:47:54;;;;;;;5.70;1.20;;;11.60;99.90;;;;;;5036558;28;20040;-51
2023/10/25 08:50:20;;;;;;;1.80;0.88;;;11.60;99.90;;;;;;5036690;28;20126;-51
2023/10/25 08:52:50;;;;;;;3.35;0.85;;;11.60;99.90;;;;;;5036459;28;20534;-52
2023/10/25 08:55:17;;;;;;;;;;;11.70;99.90;;;;;;5037170;28;20029;-54
2023/10/25 08:57:43;;;;;;;1.53;0.67;;;11.80;99.90;;;;;;5036549;28;19913;-54
2023/10/25 09:00:11;;;;;;;3.30;1.00;;;11.80;99.90;;;;;;5036233;28;20033;-54
2023/10/25 09:02:38;;;;;;;2.73;0.83;;;11.90;99.90;;;;;;5036430;28;20116;-50
2023/10/25 09:05:08;;;;;;;3.53;1.10;;;11.90;99.90;;;;;;5018958;28;20440;-52
2023/10/25 09:07:35;;;;;;;3.90;0.80;;;11.90;99.90;;;;;;5019283;28;20567;-53
2023/10/25 09:10:23;;;;;;;1.70;0.80;;;12.00;99.90;;;;;;5018638;28;20037;-51
2023/10/25 09:12:51;;;;;;;3.90;0.80;;;12.00;99.90;;;;;;5036670;28;20048;-51
2023/10/25 09:15:29;;;;;;;3.30;1.20;;;12.00;99.90;;;;;;5002492;28;20037;-49
2023/10/25 09:17:57;;;;;;;2.70;0.97;;;12.00;99.90;;;;;;5037206;28;20036;-50
2023/10/25 09:20:27;;;;;;;2.67;1.20;;;12.10;99.90;;;;;;5036671;28;20037;-49
2023/10/25 09:23:07;;;;;;;3.90;0.80;;;12.10;99.90;;;;;;5036976;28;20434;-50
2023/10/25 09:25:33;;;;;;;4.63;1.40;;;12.10;99.90;;;;;;5036364;28;20409;-51
2023/10/25 09:27:59;;;;;;;2.67;1.13;;;12.20;99.90;;;;;;5036679;28;20029;-50
2023/10/25 09:30:29;;;;;;;2.10;1.08;;;12.10;99.90;;;;;;5036683;28;20026;-50
2023/10/25 09:32:57;;;;;;;1.20;0.75;;;12.10;99.90;;;;;;5019592;28;20026;-50
2023/10/25 09:35:23;;;;;;;3.38;0.90;;;12.10;99.90;;;;;;5036934;28;20029;-52
2023/10/25 09:37:49;;;;;;;3.40;0.70;;;12.10;99.90;;;;;;5036387;28;20068;-52
2023/10/25 09:40:14;;;;;;;1.83;0.90;;;12.00;99.90;;;;;;5019283;28;20441;-52
2023/10/25 09:42:48;;;;;;;10.82;4.90;;;11.90;99.90;;;;;;5019614;28;20467;-53
2023/10/25 09:45:20;;;;;;;9.13;4.32;;;11.80;99.90;;;;;;5019252;28;20032;-51
2023/10/25 09:47:52;;;;;;;2.33;0.90;;;11.80;99.90;;;;;;5037234;28;20053;-49
2023/10/25 09:50:31;;;;;;;6.07;1.13;;;11.80;99.90;;;;;;5036881;28;20041;-48
2023/10/25 09:53:08;;;;;;;2.30;0.60;;;11.80;99.90;;;;;;5035875;28;20125;-52
2023/10/25 09:55:35;;;;;;;1.42;1.00;;;11.70;99.90;;;;;;5034056;28;20125;-51
2023/10/25 09:58:02;;;;;;;3.00;0.75;;;11.60;99.90;;;;;;5033984;28;20061;-51
2023/10/25 10:00:28;;;;;;;1.73;0.70;;;11.50;99.90;;;;;;5017799;28;20034;-54
2023/10/25 10:02:58;;;;;;;2.58;0.93;;;11.40;99.90;;;;;;5034983;28;20482;-53
2023/10/25 10:05:46;;;;;;;2.45;0.70;;;11.30;99.90;;;;;;5035642;28;20033;-54
2023/10/25 10:08:29;;;;;;;1.27;0.60;;;11.20;99.90;;;;;;5034816;28;20052;-52
2023/10/25 10:11:01;;;;;;;3.55;0.60;;;11.30;99.90;;;;;;5035457;28;20061;-51
2023/10/25 10:13:27;;;;;;;1.27;0.75;;;11.30;99.90;;;;;;5038656;28;20137;-51
2023/10/25 10:16:01;;;;;;;3.10;0.90;;;11.20;99.90;;;;;;5039624;28;20061;-53
2023/10/25 10:18:32;;;;;;;2.92;0.50;;;11.20;99.90;;;;;;5038710;28;20045;-53
2023/10/25 10:21:00;;;;;;;2.05;0.60;;;11.20;99.90;;;;;;5038782;28;20028;-52
2023/10/25 10:23:53;;;;;;;2.17;0.60;;;11.20;99.90;;;;;;5039066;28;20053;-53
2023/10/25 10:26:44;;;;;;;1.73;0.75;;;11.20;99.90;;;;;;5039186;28;20034;-53
2023/10/25 10:29:31;;;;;;;2.33;0.65;;;11.20;99.90;;;;;;5038872;28;20085;-55
2023/10/25 10:31:59;;;;;;;1.77;0.60;;;11.20;99.90;;;;;;5021613;28;20026;-51
2023/10/25 10:34:40;;;;;;;1.55;0.60;;;11.20;99.90;;;;;;5021925;28;20477;-51
2023/10/25 10:37:08;;;;;;;1.57;0.70;;;11.20;99.90;;;;;;5039241;28;20041;-54
2023/10/25 10:39:34;;;;;;;1.10;0.60;;;11.20;99.90;;;;;;5039230;28;20052;-54
2023/10/25 10:42:01;;;;;;;2.77;0.73;;;11.10;99.90;;;;;;5039487;28;20025;-53
2023/10/25 10:44:33;;;;;;;2.87;0.90;;;11.20;99.90;;;;;;5038349;28;20029;-52
2023/10/25 10:47:00;;;;;;;1.40;0.88;;;11.30;99.90;;;;;;5038568;28;20520;-53
2023/10/25 10:49:29;;;;;;;2.58;0.80;;;11.30;99.90;;;;;;5038548;28;20037;-55
2023/10/25 10:51:55;;;;;;;3.15;0.93;;;11.30;99.90;;;;;;5039217;28;20029;-54
2023/10/25 10:54:21;;;;;;;2.47;0.80;;;11.40;99.90;;;;;;5038377;28;20036;-54
2023/10/25 10:56:47;;;;;;;2.40;0.70;;;11.40;99.90;;;;;;5038406;28;20037;-51
2023/10/25 10:59:12;;;;;;;2.67;1.00;;;11.30;99.90;;;;;;5020557;28;20034;-54
2023/10/25 11:01:38;;;;;;;3.15;0.75;;;11.30;99.90;;;;;;5038684;28;20040;-53
2023/10/25 11:04:05;;;;;;;3.53;1.17;;;11.30;99.90;;;;;;5038195;28;20036;-53
2023/10/25 11:06:30;;;;;;;2.05;0.90;;;11.40;99.90;;;;;;5021082;28;20398;-54
2023/10/25 11:08:59;;;;;;;2.35;0.80;;;11.50;99.90;;;;;;5020588;28;20033;-54
2023/10/25 11:11:25;;;;;;;1.40;1.10;;;11.50;99.90;;;;;;5039169;28;20037;-54
2023/10/25 11:13:51;;;;;;;2.70;0.82;;;11.50;99.90;;;;;;5038561;28;20062;-54
2023/10/25 11:16:17;;;;;;;4.10;1.05;;;11.60;99.90;;;;;;5038062;28;20403;-52
2023/10/25 11:18:43;;;;;;;2.03;0.87;;;11.60;99.90;;;;;;5037864;28;20062;-53
2023/10/25 11:21:11;;;;;;;1.77;0.95;;;11.60;99.90;;;;;;5038115;28;20026;-54
2023/10/25 11:23:36;;;;;;;2.80;1.33;;;11.50;99.90;;;;;;5036993;28;20386;-54
2023/10/25 11:26:03;;;;;;;1.37;0.80;;;11.60;99.90;;;;;;5037755;28;20025;-52
2023/10/25 11:28:29;;;;;;;1.43;0.80;;;11.60;99.90;;;;;;5038059;28;20148;-53
2023/10/25 11:31:01;;;;;;;6.17;1.57;;;11.60;99.90;;;;;;5038025;28;20053;-54
2023/10/25 11:33:26;;;;;;;3.73;1.10;;;11.40;99.90;;;;;;5038419;28;20048;-54
2023/10/25 11:35:54;;;;;;;2.37;1.00;;;11.40;99.90;;;;;;5019914;28;20041;-54
2023/10/25 11:38:19;;;;;;;2.17;1.07;;;11.40;99.90;;;;;;5037566;28;20048;-54
2023/10/25 11:40:46;;;;;;;2.00;1.20;;;11.30;99.90;;;;;;5037516;28;20092;-54
2023/10/25 11:43:13;;;;;;;2.90;0.90;;;11.40;99.90;;;;;;5037660;28;20104;-55
2023/10/25 11:45:40;;;;;;;2.27;1.30;;;11.40;99.90;;;;;;5037822;28;20035;-55
2023/10/25 11:48:07;;;;;;;3.10;1.40;;;11.40;99.90;;;;;;5037294;28;20041;-51
2023/10/25 11:50:33;;;;;;;2.67;0.97;;;11.30;99.90;;;;;;5037882;28;20461;-53
2023/10/25 11:52:59;;;;;;;3.00;1.40;;;11.30;99.90;;;;;;5037935;28;20033;-54
2023/10/25 11:55:28;;;;;;;4.00;1.10;;;11.30;99.90;;;;;;5036716;28;20037;-55
2023/10/25 11:57:55;;;;;;;2.20;1.30;;;11.30;99.90;;;;;;5037461;28;20072;-51
2023/10/25 12:00:21;;;;;;;1.83;0.90;;;11.30;99.90;;;;;;5019658;28;20037;-52
2023/10/25 12:02:47;;;;;;;3.10;1.47;;;11.30;99.90;;;;;;5037192;28;20544;-53
2023/10/25 12:05:13;;;;;;;2.40;1.40;;;11.20;99.90;;;;;;5037301;28;20083;-55
2023/10/25 12:07:38;;;;;;;3.40;1.13;;;11.10;99.90;;;;;;5019490;28;20048;-54
2023/10/25 12:10:05;;;;;;;5.77;1.17;;;11.20;99.90;;;;;;5018916;28;20040;-55
2023/10/25 12:12:31;;;;;;;1.83;0.97;;;11.20;99.90;;;;;;5037063;28;20449;-55
2023/10/25 12:14:57;;;;;;;2.17;1.10;;;11.10;99.90;;;;;;5036996;28;20037;-54
2023/10/25 12:17:23;;;;;;;2.60;1.30;;;11.10;99.90;;;;;;5036946;28;20083;-52
2023/10/25 12:19:51;;;;;;;1.97;1.13;;;11.00;99.90;;;;;;5037142;28;20116;-55
2023/10/25 12:22:18;;;;;;;4.27;1.50;;;11.00;99.90;;;;;;5037490;28;20544;-54
2023/10/25 12:24:44;;;;;;;3.90;1.57;;;10.90;99.90;;;;;;5019494;28;20029;-52
2023/10/25 12:27:11;;;;;;;3.63;1.30;;;10.90;99.90;;;;;;5037051;28;20037;-54
2023/10/25 12:29:37;;;;;;;2.90;1.60;;;10.90;99.90;;;;;;5036826;28;20111;-55
2023/10/25 12:32:06;;;;;;;3.47;1.37;;;11.00;99.90;;;;;;5037298;28;20021;-55
2023/10/25 12:34:32;;;;;;;2.33;1.40;;;10.90;99.90;;;;;;5037236;28;20146;-51
2023/10/25 12:36:58;;;;;;;3.00;1.40;;;10.90;99.90;;;;;;5037031;28;20029;-53
2023/10/25 12:39:23;;;;;;;3.60;1.37;;;10.90;99.90;;;;;;5037674;28;20025;-51
2023/10/25 12:41:49;;;;;;;3.13;1.57;;;10.90;99.90;;;;;;5037606;28;20087;-55
2023/10/25 12:44:15;;;;;;;2.23;1.20;;;10.80;99.90;;;;;;5036992;28;20116;-55
2023/10/25 12:46:42;;;;;;;2.27;0.93;;;10.80;99.90;;;;;;5037052;28;20143;-53
2023/10/25 12:49:09;;;;;;;3.27;1.20;;;10.80;99.90;;;;;;5019382;28;20030;-52
2023/10/25 12:51:35;;;;;;;2.73;1.07;;;10.80;99.90;;;;;;5019641;28;20083;-53